createdAt,value
2018-12-16T00:00:54.794Z,97823.86
2018-12-16T00:03:23.916Z,97827.80
2018-12-16T00:05:52.769Z,97836.70
2018-12-16T00:08:21.852Z,97844.54
2018-12-16T00:10:50.601Z,97849.08
2018-12-16T00:13:19.771Z,97840.59
2018-12-16T00:15:48.836Z,97841.83
2018-12-16T00:18:17.795Z,97843.98
2018-12-16T00:20:46.845Z,97848.39
2018-12-16T00:23:15.944Z,97860.88
2018-12-16T00:25:44.896Z,97857.06
2018-12-16T00:28:13.800Z,97852.77
2018-12-16T00:30:42.730Z,97850.63
2018-12-16T00:33:11.676Z,97838.53
2018-12-16T00:35:40.614Z,97840.68
2018-12-16T00:38:09.563Z,97835.55
2018-12-16T00:40:38.581Z,97832.97
2018-12-16T00:43:07.403Z,97835.00
2018-12-16T00:45:36.339Z,97831.91
2018-12-16T00:48:05.212Z,97824.52
2018-12-16T00:50:34.304Z,97823.86
2018-12-16T00:53:03.347Z,97821.73
2018-12-16T00:55:32.431Z,97824.72
2018-12-16T00:58:01.051Z,97830.61
2018-12-16T01:00:29.963Z,97822.81
2018-12-16T01:02:58.783Z,97827.71
2018-12-16T01:05:27.844Z,97827.33
2018-12-16T01:07:56.940Z,97821.16
2018-12-16T01:10:25.660Z,97819.45
2018-12-16T01:12:54.595Z,97810.76
2018-12-16T01:15:23.354Z,97815.11
2018-12-16T01:17:52.285Z,97812.30
2018-12-16T01:20:21.185Z,97805.67
2018-12-16T01:22:50.320Z,97800.00
2018-12-16T01:25:19.352Z,97801.31
2018-12-16T01:27:48.385Z,97781.53
2018-12-16T01:30:17.362Z,97777.61
2018-12-16T01:32:46.248Z,97782.90
2018-12-16T01:35:15.197Z,97785.52
2018-12-16T01:37:44.295Z,97782.49
2018-12-16T01:40:13.598Z,97794.56
2018-12-16T01:42:42.648Z,97789.84
2018-12-16T01:45:11.727Z,97791.98
2018-12-16T01:47:40.626Z,97789.62
2018-12-16T01:50:09.562Z,97801.62
2018-12-16T01:52:38.323Z,97815.44
2018-12-16T01:55:08.912Z,97815.86
2018-12-16T01:57:38.915Z,97806.03
2018-12-16T02:00:09.612Z,97807.53
2018-12-16T02:02:38.368Z,97820.07
2018-12-16T02:05:07.436Z,97815.73
2018-12-16T02:07:36.380Z,97803.14
2018-12-16T02:10:06.093Z,97798.02
2018-12-16T02:12:35.167Z,97788.77
2018-12-16T02:15:04.216Z,97795.12
2018-12-16T02:17:33.142Z,97789.61
2018-12-16T02:20:01.862Z,97791.23
2018-12-16T02:22:30.837Z,97788.27
2018-12-16T02:24:59.776Z,97785.80
2018-12-16T02:27:28.797Z,97785.58
2018-12-16T02:29:57.932Z,97786.92
2018-12-16T02:32:27.109Z,97778.05
2018-12-16T02:34:55.969Z,97771.20
2018-12-16T02:37:24.769Z,97764.48
2018-12-16T02:39:53.576Z,97768.87
2018-12-16T02:42:22.628Z,97754.02
2018-12-16T02:44:51.521Z,97758.17
2018-12-16T02:47:20.562Z,97751.33
2018-12-16T02:49:49.762Z,97742.77
2018-12-16T02:52:18.609Z,97741.88
2018-12-16T02:54:47.394Z,97737.73
2018-12-16T02:57:16.080Z,97735.18
2018-12-16T02:59:45.028Z,97733.84
2018-12-16T03:02:13.794Z,97744.09
2018-12-16T03:04:42.737Z,97749.95
2018-12-16T03:07:11.425Z,97745.98
2018-12-16T03:09:40.490Z,97742.66
2018-12-16T03:12:09.625Z,97745.27
2018-12-16T03:14:38.440Z,97740.53
2018-12-16T03:17:07.364Z,97744.38
2018-12-16T03:19:36.246Z,97746.20
2018-12-16T03:22:05.190Z,97756.61
2018-12-16T03:24:34.165Z,97745.61
2018-12-16T03:27:03.060Z,97740.81
2018-12-16T03:29:31.955Z,97748.05
2018-12-16T03:32:00.721Z,97752.80
2018-12-16T03:34:29.632Z,97748.84
2018-12-16T03:36:58.538Z,97749.34
2018-12-16T03:39:27.352Z,97751.84
2018-12-16T03:41:56.348Z,97752.38
2018-12-16T03:44:25.406Z,97750.31
2018-12-16T03:46:54.346Z,97749.48
2018-12-16T03:49:23.528Z,97745.39
2018-12-16T03:51:52.531Z,97741.88
2018-12-16T03:54:21.486Z,97750.17
2018-12-16T03:56:50.441Z,97745.59
2018-12-16T03:59:20.591Z,97744.75
2018-12-16T04:01:58.221Z,97743.80
2018-12-16T04:04:27.848Z,97742.98
2018-12-16T04:06:56.569Z,97735.77
2018-12-16T04:09:25.513Z,97734.08
2018-12-16T04:11:54.508Z,97731.16
2018-12-16T04:14:23.589Z,97733.80
2018-12-16T04:16:52.606Z,97727.23
2018-12-16T04:19:21.573Z,97732.17
2018-12-16T04:21:50.624Z,97729.91
2018-12-16T04:24:19.559Z,97736.49
2018-12-16T04:26:48.463Z,97729.15
2018-12-16T04:29:17.491Z,97734.15
2018-12-16T04:31:46.377Z,97734.61
2018-12-16T04:34:15.367Z,97732.44
2018-12-16T04:36:44.256Z,97729.27
2018-12-16T04:39:13.294Z,97719.36
2018-12-16T04:41:42.360Z,97710.66
2018-12-16T04:44:11.276Z,97712.96
2018-12-16T04:46:40.330Z,97716.89
2018-12-16T04:49:09.313Z,97719.91
2018-12-16T04:51:38.078Z,97709.03
2018-12-16T04:54:07.114Z,97711.61
2018-12-16T04:56:36.065Z,97707.50
2018-12-16T04:59:05.083Z,97712.80
2018-12-16T05:01:34.092Z,97719.73
2018-12-16T05:04:03.114Z,97721.34
2018-12-16T05:06:32.054Z,97721.16
2018-12-16T05:09:00.785Z,97725.63
2018-12-16T05:11:29.865Z,97735.42
2018-12-16T05:13:58.744Z,97735.34
2018-12-16T05:16:27.490Z,97717.30
2018-12-16T05:18:56.476Z,97716.86
2018-12-16T05:21:25.451Z,97727.69
2018-12-16T05:23:54.290Z,97722.05
2018-12-16T05:26:23.214Z,97723.86
2018-12-16T05:28:51.884Z,97719.89
2018-12-16T05:31:20.982Z,97724.95
2018-12-16T05:33:50.067Z,97725.38
2018-12-16T05:36:19.216Z,97730.25
2018-12-16T05:38:49.698Z,97723.30
2018-12-16T05:41:18.808Z,97723.52
2018-12-16T05:43:47.661Z,97726.48
2018-12-16T05:46:16.770Z,97721.45
2018-12-16T05:48:45.630Z,97717.87
2018-12-16T05:51:14.595Z,97711.79
2018-12-16T05:53:48.593Z,97710.94
2018-12-16T05:56:14.303Z,97702.38
2018-12-16T05:58:43.260Z,97698.58
2018-12-16T06:01:12.180Z,97688.33
2018-12-16T06:03:41.142Z,97693.64
2018-12-16T06:06:10.071Z,97697.81
2018-12-16T06:08:38.928Z,97703.77
2018-12-16T06:11:08.024Z,97701.64
2018-12-16T06:13:37.212Z,97709.31
2018-12-16T06:16:06.211Z,97713.42
2018-12-16T06:18:35.479Z,97709.14
2018-12-16T06:21:04.144Z,97711.67
2018-12-16T06:23:32.863Z,97707.27
2018-12-16T06:26:02.010Z,97718.80
2018-12-16T06:28:31.077Z,97710.67
2018-12-16T06:31:00.139Z,97719.47
2018-12-16T06:33:29.151Z,97722.86
2018-12-16T06:35:58.175Z,97718.93
2018-12-16T06:38:27.187Z,97729.27
2018-12-16T06:40:56.285Z,97739.24
2018-12-16T06:43:25.371Z,97750.95
2018-12-16T06:45:54.360Z,97755.84
2018-12-16T06:48:23.460Z,97768.47
2018-12-16T06:50:52.406Z,97754.66
2018-12-16T06:53:21.437Z,97758.27
2018-12-16T06:55:53.731Z,97753.59
2018-12-16T06:58:22.692Z,97752.76
2018-12-16T07:00:51.752Z,97745.44
2018-12-16T07:03:20.577Z,97734.09
2018-12-16T07:05:49.295Z,97743.22
2018-12-16T07:08:18.019Z,97741.34
2018-12-16T07:10:47.025Z,97734.28
2018-12-16T07:13:15.818Z,97728.91
2018-12-16T07:15:44.784Z,97734.55
2018-12-16T07:18:13.383Z,97735.38
2018-12-16T07:20:42.350Z,97737.47
2018-12-16T07:23:11.105Z,97747.66
2018-12-16T07:25:40.232Z,97730.39
2018-12-16T07:28:09.209Z,97734.36
2018-12-16T07:30:38.129Z,97726.66
2018-12-16T07:33:07.121Z,97722.39
2018-12-16T07:35:36.142Z,97717.22
2018-12-16T07:38:05.188Z,97713.75
2018-12-16T07:40:34.132Z,97708.08
2018-12-16T07:43:03.107Z,97715.70
2018-12-16T07:45:32.119Z,97712.79
2018-12-16T07:48:01.210Z,97710.29
2018-12-16T07:50:30.501Z,97718.52
2018-12-16T07:52:59.516Z,97717.16
2018-12-16T07:55:28.623Z,97723.09
2018-12-16T07:57:57.460Z,97730.39
2018-12-16T08:00:26.533Z,97735.03
2018-12-16T08:02:55.361Z,97738.82
2018-12-16T08:05:24.147Z,97745.78
2018-12-16T08:07:53.126Z,97741.76
2018-12-16T08:10:22.131Z,97733.66
2018-12-16T08:12:50.838Z,97737.20
2018-12-16T08:15:19.624Z,97742.35
2018-12-16T08:17:48.582Z,97743.66
2018-12-16T08:20:17.517Z,97739.87
2018-12-16T08:22:46.454Z,97737.34
2018-12-16T08:25:15.497Z,97731.38
2018-12-16T08:27:44.311Z,97735.77
2018-12-16T08:30:13.266Z,97740.52
2018-12-16T08:32:42.224Z,97733.30
2018-12-16T08:35:10.965Z,97723.61
2018-12-16T08:37:39.897Z,97723.14
2018-12-16T08:40:08.856Z,97720.81
2018-12-16T08:42:37.868Z,97721.54
2018-12-16T08:45:07.702Z,97719.97
2018-12-16T08:47:36.672Z,97712.80
2018-12-16T08:50:05.960Z,97710.81
2018-12-16T08:52:34.771Z,97714.19
2018-12-16T08:55:03.828Z,97713.86
2018-12-16T08:57:32.846Z,97713.80
2018-12-16T09:00:01.732Z,97708.62
2018-12-16T09:02:30.641Z,97719.84
2018-12-16T09:04:59.491Z,97736.27
2018-12-16T09:07:28.439Z,97722.78
2018-12-16T09:09:57.143Z,97719.27
2018-12-16T09:12:26.264Z,97706.68
2018-12-16T09:14:55.237Z,97698.03
2018-12-16T09:17:25.833Z,97709.82
2018-12-16T09:19:55.062Z,97700.87
2018-12-16T09:22:24.125Z,97697.43
2018-12-16T09:24:53.310Z,97690.84
2018-12-16T09:27:22.609Z,97688.31
2018-12-16T09:29:51.562Z,97681.00
2018-12-16T09:32:20.288Z,97681.70
2018-12-16T09:34:49.124Z,97673.16
2018-12-16T09:37:18.118Z,97669.88
2018-12-16T09:39:47.162Z,97673.90
2018-12-16T09:42:15.895Z,97674.26
2018-12-16T09:44:45.286Z,97666.66
2018-12-16T09:47:13.994Z,97659.27
2018-12-16T09:49:42.949Z,97660.83
2018-12-16T09:52:11.720Z,97657.68
2018-12-16T09:54:44.170Z,97665.39
2018-12-16T09:57:11.480Z,97660.02
2018-12-16T09:59:40.412Z,97653.58
2018-12-16T10:02:09.423Z,97655.08
2018-12-16T10:04:38.467Z,97651.67
2018-12-16T10:07:07.217Z,97653.95
2018-12-16T10:09:36.076Z,97642.03
2018-12-16T10:12:05.039Z,97640.30
2018-12-16T10:14:33.833Z,97637.19
2018-12-16T10:17:02.829Z,97639.32
2018-12-16T10:19:31.755Z,97631.55
2018-12-16T10:22:00.400Z,97631.08
2018-12-16T10:24:29.302Z,97637.33
2018-12-16T10:26:58.507Z,97633.92
2018-12-16T10:29:27.460Z,97630.98
2018-12-16T10:31:56.373Z,97629.58
2018-12-16T10:34:25.384Z,97628.81
2018-12-16T10:36:54.499Z,97628.84
2018-12-16T10:39:23.595Z,97625.77
2018-12-16T10:41:52.436Z,97623.30
2018-12-16T10:44:21.347Z,97614.58
2018-12-16T10:46:50.334Z,97604.45
2018-12-16T10:49:19.252Z,97597.47
2018-12-16T10:51:48.286Z,97595.22
2018-12-16T10:54:18.482Z,97601.98
2018-12-16T10:56:47.208Z,97595.75
2018-12-16T10:59:15.938Z,97597.93
2018-12-16T11:01:44.868Z,97593.89
2018-12-16T11:04:13.972Z,97593.23
2018-12-16T11:06:42.953Z,97592.77
2018-12-16T11:09:11.911Z,97601.16
2018-12-16T11:11:41.002Z,97604.95
2018-12-16T11:14:10.018Z,97603.77
2018-12-16T11:16:38.823Z,97597.97
2018-12-16T11:19:07.879Z,97608.53
2018-12-16T11:21:36.679Z,97615.16
2018-12-16T11:24:05.570Z,97615.77
2018-12-16T11:26:34.542Z,97624.27
2018-12-16T11:29:03.512Z,97616.45
2018-12-16T11:31:32.957Z,97612.52
2018-12-16T11:34:01.670Z,97619.42
2018-12-16T11:36:30.733Z,97617.83
2018-12-16T11:38:59.674Z,97614.45
2018-12-16T11:41:28.807Z,97618.06
2018-12-16T11:43:57.800Z,97611.95
2018-12-16T11:46:26.672Z,97611.59
2018-12-16T11:48:55.788Z,97620.91
2018-12-16T11:51:24.514Z,97621.94
2018-12-16T11:53:54.121Z,97620.66
2018-12-16T11:56:23.170Z,97619.45
2018-12-16T11:58:52.268Z,97617.35
2018-12-16T12:01:21.275Z,97615.92
2018-12-16T12:03:49.952Z,97623.64
2018-12-16T12:06:18.896Z,97627.91
2018-12-16T12:08:48.029Z,97625.73
2018-12-16T12:11:17.121Z,97630.88
2018-12-16T12:13:45.788Z,97636.45
2018-12-16T12:16:14.745Z,97639.46
2018-12-16T12:18:43.689Z,97636.45
2018-12-16T12:21:12.681Z,97637.23
2018-12-16T12:23:41.673Z,97651.08
2018-12-16T12:26:10.376Z,97658.55
2018-12-16T12:28:39.460Z,97658.28
2018-12-16T12:31:08.531Z,97659.27
2018-12-16T12:33:37.406Z,97665.99
2018-12-16T12:36:06.416Z,97670.63
2018-12-16T12:38:35.468Z,97682.20
2018-12-16T12:41:04.475Z,97680.20
2018-12-16T12:43:33.501Z,97694.72
2018-12-16T12:46:02.281Z,97703.08
2018-12-16T12:48:31.372Z,97713.50
2018-12-16T12:51:00.900Z,97706.73
2018-12-16T12:53:29.629Z,97710.22
2018-12-16T12:55:58.737Z,97712.81
2018-12-16T12:58:27.793Z,97718.14
2018-12-16T13:00:57.503Z,97726.50
2018-12-16T13:03:26.355Z,97733.10
2018-12-16T13:05:55.104Z,97731.45
2018-12-16T13:08:24.054Z,97731.92
2018-12-16T13:10:53.137Z,97735.88
2018-12-16T13:13:23.082Z,97737.30
2018-12-16T13:15:52.024Z,97741.75
2018-12-16T13:18:21.058Z,97740.92
2018-12-16T13:20:49.927Z,97746.17
2018-12-16T13:23:18.553Z,97746.23
2018-12-16T13:25:58.066Z,97757.47
2018-12-16T13:28:27.165Z,97760.58
2018-12-16T13:30:56.296Z,97763.66
2018-12-16T13:33:25.143Z,97767.20
2018-12-16T13:35:54.184Z,97765.91
2018-12-16T13:38:23.002Z,97780.35
2018-12-16T13:40:51.744Z,97783.86
2018-12-16T13:43:20.849Z,97775.17
2018-12-16T13:45:50.300Z,97777.75
2018-12-16T13:48:19.310Z,97781.27
2018-12-16T13:50:48.473Z,97774.87
2018-12-16T13:53:17.375Z,97786.97
2018-12-16T13:55:46.234Z,97786.59
2018-12-16T13:58:15.004Z,97794.83
2018-12-16T14:00:43.866Z,97791.33
2018-12-16T14:03:12.940Z,97795.68
2018-12-16T14:05:46.667Z,97797.44
2018-12-16T14:08:12.870Z,97801.83
2018-12-16T14:10:41.884Z,97807.00
2018-12-16T14:13:10.682Z,97812.64
2018-12-16T14:15:39.673Z,97818.26
2018-12-16T14:18:09.555Z,97820.84
2018-12-16T14:20:38.655Z,97818.30
2018-12-16T14:23:07.743Z,97810.56
2018-12-16T14:25:36.829Z,97816.19
2018-12-16T14:28:05.937Z,97820.52
2018-12-16T14:30:34.852Z,97823.13
2018-12-16T14:33:03.955Z,97825.73
2018-12-16T14:35:33.155Z,97836.10
2018-12-16T14:38:02.566Z,97835.67
2018-12-16T14:40:31.343Z,97841.31
2018-12-16T14:43:00.333Z,97855.12
2018-12-16T14:45:29.337Z,97850.39
2018-12-16T14:47:58.525Z,97849.09
2018-12-16T14:50:27.692Z,97852.09
2018-12-16T14:52:56.625Z,97858.11
2018-12-16T14:55:26.977Z,97861.55
2018-12-16T14:57:56.068Z,97857.22
2018-12-16T15:00:24.818Z,97862.36
2018-12-16T15:02:53.900Z,97858.06
2018-12-16T15:05:23.024Z,97862.78
2018-12-16T15:07:52.141Z,97857.61
2018-12-16T15:10:21.196Z,97865.36
2018-12-16T15:12:50.084Z,97862.74
2018-12-16T15:15:19.384Z,97867.91
2018-12-16T15:17:48.480Z,97867.45
2018-12-16T15:20:17.394Z,97870.03
2018-12-16T15:22:46.328Z,97863.95
2018-12-16T15:25:15.409Z,97880.27
2018-12-16T15:27:44.328Z,97884.56
2018-12-16T15:30:13.868Z,97891.89
2018-12-16T15:32:42.597Z,97894.89
2018-12-16T15:35:11.242Z,97893.59
2018-12-16T15:37:39.940Z,97891.00
2018-12-16T15:40:09.344Z,97895.23
2018-12-16T15:42:38.345Z,97902.08
2018-12-16T15:45:10.450Z,97915.77
2018-12-16T15:47:39.456Z,97913.13
2018-12-16T15:50:09.406Z,97897.18
2018-12-16T15:52:38.271Z,97920.84
2018-12-16T15:55:09.511Z,97924.23
2018-12-16T15:57:38.664Z,97925.47
2018-12-16T16:00:08.153Z,97918.63
2018-12-16T16:02:37.108Z,97937.13
2018-12-16T16:05:06.357Z,97951.73
2018-12-16T16:07:35.150Z,97947.00
2018-12-16T16:10:04.545Z,97949.18
2018-12-16T16:12:33.666Z,97953.92
2018-12-16T16:15:02.394Z,97947.94
2018-12-16T16:17:31.114Z,97952.63
2018-12-16T16:20:00.373Z,97953.05
2018-12-16T16:22:29.239Z,97955.22
2018-12-16T16:24:57.987Z,97962.97
2018-12-16T16:27:26.710Z,97950.96
2018-12-16T16:29:55.476Z,97956.59
2018-12-16T16:32:24.350Z,97958.70
2018-12-16T16:34:53.194Z,97957.46
2018-12-16T16:37:21.977Z,97953.20
2018-12-16T16:39:51.020Z,97963.52
2018-12-16T16:42:19.785Z,97960.07
2018-12-16T16:44:48.629Z,97955.33
2018-12-16T16:47:17.516Z,97961.36
2018-12-16T16:49:46.271Z,97971.29
2018-12-16T16:52:15.059Z,97958.45
2018-12-16T16:54:43.879Z,97967.56
2018-12-16T16:57:12.681Z,97971.92
2018-12-16T16:59:41.529Z,97981.38
2018-12-16T17:02:10.328Z,97971.53
2018-12-16T17:04:39.074Z,97981.44
2018-12-16T17:07:07.990Z,97980.16
2018-12-16T17:09:36.673Z,97986.20
2018-12-16T17:12:06.445Z,97984.93
2018-12-16T17:14:36.292Z,97988.80
2018-12-16T17:17:05.172Z,97981.94
2018-12-16T17:19:34.132Z,97990.57
2018-12-16T17:22:03.472Z,97984.58
2018-12-16T17:24:32.722Z,97994.05
2018-12-16T17:27:02.433Z,97997.98
2018-12-16T17:29:31.273Z,98000.14
2018-12-16T17:32:00.228Z,98019.05
2018-12-16T17:34:29.334Z,98021.64
2018-12-16T17:36:58.442Z,98029.40
2018-12-16T17:39:27.220Z,98034.98
2018-12-16T17:41:56.212Z,98025.52
2018-12-16T17:44:25.416Z,98025.98
2018-12-16T17:46:54.467Z,98032.45
2018-12-16T17:49:23.600Z,98033.28
2018-12-16T17:51:52.681Z,98014.38
2018-12-16T17:54:21.832Z,98019.54
2018-12-16T17:56:50.908Z,98020.42
2018-12-16T17:59:20.532Z,98015.71
2018-12-16T18:01:49.850Z,98007.09
2018-12-16T18:04:19.125Z,98015.26
2018-12-16T18:06:48.529Z,98017.83
2018-12-16T18:09:17.763Z,98028.58
2018-12-16T18:11:46.499Z,98032.45
2018-12-16T18:14:15.374Z,98031.98
2018-12-16T18:16:44.480Z,98033.73
2018-12-16T18:19:13.489Z,98032.86
2018-12-16T18:21:42.939Z,98024.16
2018-12-16T18:24:11.898Z,98033.52
2018-12-16T18:26:44.092Z,98036.02
2018-12-16T18:29:12.201Z,98035.17
2018-12-16T18:31:41.294Z,98044.22
2018-12-16T18:34:10.484Z,98045.44
2018-12-16T18:36:39.492Z,98046.72
2018-12-16T18:39:10.079Z,98050.60
2018-12-16T18:41:39.851Z,98062.59
2018-12-16T18:44:09.765Z,98057.83
2018-12-16T18:46:38.826Z,98069.87
2018-12-16T18:49:07.989Z,98062.03
2018-12-16T18:51:37.189Z,98068.47
2018-12-16T18:54:06.455Z,98072.37
2018-12-16T18:56:35.975Z,98068.50
2018-12-16T18:59:05.030Z,98063.69
2018-12-16T19:01:34.052Z,98077.48
2018-12-16T19:04:03.172Z,98074.00
2018-12-16T19:06:32.200Z,98071.83
2018-12-16T19:09:01.097Z,98089.47
2018-12-16T19:11:30.176Z,98087.72
2018-12-16T19:13:59.255Z,98092.05
2018-12-16T19:16:28.240Z,98095.05
2018-12-16T19:18:57.182Z,98094.64
2018-12-16T19:21:26.251Z,98095.09
2018-12-16T19:23:55.240Z,98097.66
2018-12-16T19:26:23.978Z,98099.81
2018-12-16T19:28:53.015Z,98101.93
2018-12-16T19:31:23.232Z,98107.56
2018-12-16T19:33:52.471Z,98111.45
2018-12-16T19:36:21.450Z,98111.05
2018-12-16T19:38:50.343Z,98116.23
2018-12-16T19:41:19.363Z,98117.61
2018-12-16T19:43:48.396Z,98116.30
2018-12-16T19:46:17.418Z,98111.52
2018-12-16T19:48:46.534Z,98111.47
2018-12-16T19:51:15.642Z,98108.89
2018-12-16T19:53:44.597Z,98113.20
2018-12-16T19:56:14.547Z,98123.05
2018-12-16T19:58:43.519Z,98126.49
2018-12-16T20:01:12.476Z,98125.65
2018-12-16T20:03:46.618Z,98127.80
2018-12-16T20:06:20.788Z,98124.34
2018-12-16T20:08:49.890Z,98118.36
2018-12-16T20:11:18.938Z,98111.91
2018-12-16T20:13:47.928Z,98115.80
2018-12-16T20:16:23.296Z,98122.27
2018-12-16T20:18:52.344Z,98119.20
2018-12-16T20:21:21.496Z,98114.38
2018-12-16T20:23:51.084Z,98115.98
2018-12-16T20:26:20.187Z,98128.84
2018-12-16T20:28:49.569Z,98125.78
2018-12-16T20:31:19.251Z,98126.67
2018-12-16T20:33:48.033Z,98137.00
2018-12-16T20:36:16.745Z,98124.09
2018-12-16T20:38:45.575Z,98131.01
2018-12-16T20:41:14.687Z,98132.73
2018-12-16T20:43:43.649Z,98133.98
2018-12-16T20:46:13.331Z,98138.66
2018-12-16T20:48:42.327Z,98138.68
2018-12-16T20:51:11.453Z,98133.08
2018-12-16T20:53:40.376Z,98136.09
2018-12-16T20:56:09.396Z,98141.62
2018-12-16T20:58:38.351Z,98135.14
2018-12-16T21:01:07.397Z,98128.69
2018-12-16T21:03:36.578Z,98131.30
2018-12-16T21:06:05.722Z,98140.33
2018-12-16T21:08:34.755Z,98141.20
2018-12-16T21:11:08.787Z,98139.92
2018-12-16T21:13:43.034Z,98134.31
2018-12-16T21:16:17.118Z,98129.59
2018-12-16T21:18:46.074Z,98126.16
2018-12-16T21:21:14.884Z,98123.19
2018-12-16T21:23:43.807Z,98121.08
2018-12-16T21:26:12.909Z,98130.15
2018-12-16T21:28:42.009Z,98129.75
2018-12-16T21:31:11.040Z,98134.10
2018-12-16T21:33:40.141Z,98129.00
2018-12-16T21:36:08.776Z,98139.73
2018-12-16T21:38:37.648Z,98131.17
2018-12-16T21:41:06.696Z,98135.86
2018-12-16T21:43:35.486Z,98130.67
2018-12-16T21:46:04.444Z,98139.27
2018-12-16T21:48:33.353Z,98131.85
2018-12-16T21:51:02.388Z,98130.55
2018-12-16T21:53:31.560Z,98128.77
2018-12-16T21:56:00.284Z,98128.73
2018-12-16T21:58:29.369Z,98135.19
2018-12-16T22:00:58.432Z,98135.20
2018-12-16T22:03:27.154Z,98136.11
2018-12-16T22:05:56.255Z,98133.52
2018-12-16T22:08:25.103Z,98132.67
2018-12-16T22:10:54.132Z,98129.23
2018-12-16T22:13:23.208Z,98134.37
2018-12-16T22:15:52.092Z,98134.28
2018-12-16T22:18:21.227Z,98135.13
2018-12-16T22:20:50.188Z,98126.55
2018-12-16T22:23:19.359Z,98130.44
2018-12-16T22:25:48.552Z,98124.84
2018-12-16T22:28:17.589Z,98120.11
2018-12-16T22:30:46.362Z,98102.54
2018-12-16T22:33:15.388Z,98099.56
2018-12-16T22:35:44.316Z,98098.77
2018-12-16T22:38:13.356Z,98092.73
2018-12-16T22:40:42.421Z,98083.31
2018-12-16T22:43:11.319Z,98075.20
2018-12-16T22:45:40.334Z,98071.74
2018-12-16T22:48:09.180Z,98068.77
2018-12-16T22:50:38.343Z,98067.08
2018-12-16T22:53:07.258Z,98063.27
2018-12-16T22:55:36.188Z,98063.30
2018-12-16T22:58:05.063Z,98053.86
2018-12-16T23:00:37.095Z,98059.50
2018-12-16T23:03:05.983Z,98059.05
2018-12-16T23:05:34.996Z,98058.16
2018-12-16T23:08:03.729Z,98056.87
2018-12-16T23:10:32.580Z,98059.86
2018-12-16T23:13:01.590Z,98067.59
2018-12-16T23:15:30.535Z,98076.20
2018-12-16T23:17:59.428Z,98074.49
2018-12-16T23:20:29.490Z,98076.69
2018-12-16T23:22:58.349Z,98084.84
2018-12-16T23:25:27.314Z,98096.45
2018-12-16T23:27:56.284Z,98098.64
2018-12-16T23:30:25.153Z,98095.66
2018-12-16T23:32:54.220Z,98097.78
2018-12-16T23:35:23.206Z,98099.95
2018-12-16T23:37:52.142Z,98101.27
2018-12-16T23:40:21.233Z,98101.70
2018-12-16T23:42:50.183Z,98106.50
2018-12-16T23:45:19.277Z,98109.91
2018-12-16T23:47:47.956Z,98104.74
2018-12-16T23:50:17.096Z,98115.11
2018-12-16T23:52:46.239Z,98113.36
2018-12-16T23:55:14.940Z,98112.95
2018-12-16T23:57:44.006Z,98111.23
